createdAt,value
2018-05-16T00:01:19.349Z,80.23
2018-05-16T00:03:47.988Z,80.47
2018-05-16T00:06:16.829Z,80.49
2018-05-16T00:08:45.509Z,80.45
2018-05-16T00:11:13.674Z,80.58
2018-05-16T00:13:42.328Z,80.60
2018-05-16T00:16:11.128Z,80.27
2018-05-16T00:18:39.937Z,80.41
2018-05-16T00:21:08.719Z,80.22
2018-05-16T00:23:37.348Z,79.83
2018-05-16T00:26:06.323Z,80.43
2018-05-16T00:28:35.020Z,80.65
2018-05-16T00:31:03.838Z,80.96
2018-05-16T00:33:32.829Z,81.20
2018-05-16T00:36:01.421Z,80.20
2018-05-16T00:38:30.065Z,80.16
2018-05-16T00:40:58.940Z,80.25
2018-05-16T00:43:27.589Z,79.86
2018-05-16T00:45:56.827Z,79.88
2018-05-16T00:48:25.456Z,79.92
2018-05-16T00:51:00.541Z,80.22
2018-05-16T00:53:28.668Z,80.20
2018-05-16T00:55:57.307Z,80.29
2018-05-16T00:58:26.219Z,81.02
2018-05-16T01:00:55.269Z,81.01
2018-05-16T01:03:23.909Z,81.25
2018-05-16T01:05:52.685Z,80.94
2018-05-16T01:08:21.513Z,80.67
2018-05-16T01:10:50.294Z,80.91
2018-05-16T01:13:19.067Z,80.59
2018-05-16T01:15:47.708Z,80.72
2018-05-16T01:18:16.358Z,80.95
2018-05-16T01:20:44.849Z,80.89
2018-05-16T01:23:13.526Z,80.75
2018-05-16T01:25:42.389Z,80.52
2018-05-16T01:28:10.773Z,80.27
2018-05-16T01:30:39.280Z,80.41
2018-05-16T01:33:07.792Z,80.83
2018-05-16T01:35:36.323Z,80.74
2018-05-16T01:38:05.189Z,80.01
2018-05-16T01:40:33.729Z,80.16
2018-05-16T01:43:02.531Z,80.68
2018-05-16T01:45:30.988Z,80.61
2018-05-16T01:47:59.999Z,80.96
2018-05-16T01:50:28.303Z,81.05
2018-05-16T01:52:56.760Z,80.61
2018-05-16T01:55:25.239Z,80.58
2018-05-16T01:57:54.228Z,80.58
2018-05-16T02:00:22.712Z,80.72
2018-05-16T02:02:51.616Z,80.61
2018-05-16T02:05:20.221Z,80.91
2018-05-16T02:07:49.001Z,81.43
2018-05-16T02:10:17.857Z,81.15
2018-05-16T02:12:46.510Z,81.34
2018-05-16T02:15:15.037Z,81.23
2018-05-16T02:17:43.821Z,80.97
2018-05-16T02:20:12.384Z,80.82
2018-05-16T02:22:40.725Z,81.17
2018-05-16T02:25:09.212Z,80.79
2018-05-16T02:27:37.905Z,80.84
2018-05-16T02:30:07.239Z,80.83
2018-05-16T02:32:35.733Z,80.98
2018-05-16T02:35:04.099Z,80.88
2018-05-16T02:37:33.023Z,80.89
2018-05-16T02:40:01.484Z,80.97
2018-05-16T02:42:30.276Z,80.98
2018-05-16T02:44:58.908Z,80.51
2018-05-16T02:47:27.635Z,80.16
2018-05-16T02:49:56.242Z,80.81
2018-05-16T02:52:24.793Z,80.73
2018-05-16T02:54:53.614Z,80.63
2018-05-16T02:57:22.359Z,80.58
2018-05-16T02:59:50.944Z,80.15
2018-05-16T03:02:19.757Z,80.67
2018-05-16T03:04:48.401Z,80.94
2018-05-16T03:07:16.776Z,81.01
2018-05-16T03:09:45.361Z,80.81
2018-05-16T03:12:13.965Z,81.17
2018-05-16T03:14:42.720Z,80.89
2018-05-16T03:17:11.314Z,81.08
2018-05-16T03:19:40.177Z,80.97
2018-05-16T03:22:08.717Z,80.85
2018-05-16T03:24:37.689Z,80.94
2018-05-16T03:27:06.184Z,80.89
2018-05-16T03:29:34.769Z,81.04
2018-05-16T03:32:03.473Z,81.03
2018-05-16T03:34:32.243Z,80.97
2018-05-16T03:37:00.957Z,80.65
2018-05-16T03:39:30.022Z,80.68
2018-05-16T03:41:58.552Z,81.07
2018-05-16T03:44:27.517Z,80.53
2018-05-16T03:46:56.057Z,80.08
2018-05-16T03:49:24.568Z,80.90
2018-05-16T03:51:54.095Z,80.76
2018-05-16T03:54:22.776Z,81.32
2018-05-16T03:56:51.168Z,81.78
2018-05-16T03:59:26.045Z,81.98
2018-05-16T04:02:01.052Z,81.88
2018-05-16T04:04:30.181Z,81.53
2018-05-16T04:06:58.867Z,81.29
2018-05-16T04:09:27.301Z,80.14
2018-05-16T04:11:55.838Z,80.77
2018-05-16T04:14:24.423Z,81.30
2018-05-16T04:16:52.959Z,81.20
2018-05-16T04:19:21.276Z,80.99
2018-05-16T04:21:50.777Z,81.44
2018-05-16T04:24:19.569Z,81.89
2018-05-16T04:26:48.161Z,82.57
2018-05-16T04:29:16.814Z,82.96
2018-05-16T04:31:45.596Z,83.17
2018-05-16T04:34:14.277Z,83.16
2018-05-16T04:36:42.973Z,82.99
2018-05-16T04:39:11.465Z,82.15
2018-05-16T04:41:40.083Z,82.38
2018-05-16T04:44:09.352Z,82.82
2018-05-16T04:46:37.857Z,82.84
2018-05-16T04:49:06.662Z,83.11
2018-05-16T04:51:35.145Z,83.33
2018-05-16T04:54:03.661Z,83.32
2018-05-16T04:56:32.143Z,81.22
2018-05-16T04:59:00.466Z,81.48
2018-05-16T05:01:29.029Z,81.65
2018-05-16T05:03:57.729Z,81.80
2018-05-16T05:06:26.034Z,81.96
2018-05-16T05:08:54.635Z,81.45
2018-05-16T05:11:23.437Z,82.15
2018-05-16T05:13:51.973Z,81.28
2018-05-16T05:16:20.551Z,81.67
2018-05-16T05:18:49.081Z,80.93
2018-05-16T05:21:17.459Z,81.46
2018-05-16T05:23:46.070Z,82.00
2018-05-16T05:26:14.995Z,82.62
2018-05-16T05:28:43.456Z,83.32
2018-05-16T05:31:12.229Z,82.99
2018-05-16T05:33:40.948Z,82.32
2018-05-16T05:36:09.764Z,82.68
2018-05-16T05:38:38.130Z,82.71
2018-05-16T05:41:07.442Z,82.90
2018-05-16T05:43:36.238Z,83.03
2018-05-16T05:46:04.560Z,82.74
2018-05-16T05:48:33.385Z,82.64
2018-05-16T05:51:02.521Z,82.98
2018-05-16T05:53:31.137Z,82.68
2018-05-16T05:56:00.017Z,82.48
2018-05-16T05:58:28.497Z,82.92
2018-05-16T06:00:57.141Z,82.69
2018-05-16T06:03:25.913Z,82.47
2018-05-16T06:05:54.538Z,82.50
2018-05-16T06:08:23.253Z,82.97
2018-05-16T06:10:51.750Z,83.12
2018-05-16T06:13:21.016Z,83.07
2018-05-16T06:15:49.513Z,82.92
2018-05-16T06:18:18.249Z,82.64
2018-05-16T06:20:46.877Z,82.49
2018-05-16T06:23:15.536Z,82.40
2018-05-16T06:25:44.348Z,82.94
2018-05-16T06:28:12.814Z,82.68
2018-05-16T06:30:41.597Z,82.37
2018-05-16T06:33:10.010Z,82.06
2018-05-16T06:35:38.562Z,82.15
2018-05-16T06:38:06.939Z,82.69
2018-05-16T06:40:35.413Z,82.63
2018-05-16T06:43:03.568Z,82.28
2018-05-16T06:45:31.964Z,82.32
2018-05-16T06:48:00.570Z,82.09
2018-05-16T06:50:29.120Z,82.06
2018-05-16T06:52:58.118Z,81.85
2018-05-16T06:55:26.583Z,82.06
2018-05-16T06:57:55.194Z,82.13
2018-05-16T07:00:23.729Z,82.64
2018-05-16T07:02:52.145Z,82.61
2018-05-16T07:05:20.700Z,82.50
2018-05-16T07:07:49.317Z,82.46
2018-05-16T07:10:17.997Z,81.90
2018-05-16T07:12:46.246Z,82.08
2018-05-16T07:15:14.741Z,81.95
2018-05-16T07:17:42.981Z,82.09
2018-05-16T07:20:11.477Z,82.37
2018-05-16T07:22:39.960Z,82.14
2018-05-16T07:25:08.192Z,82.01
2018-05-16T07:27:36.661Z,82.07
2018-05-16T07:30:04.944Z,81.93
2018-05-16T07:32:33.487Z,81.63
2018-05-16T07:35:02.050Z,81.24
2018-05-16T07:37:30.723Z,80.91
2018-05-16T07:39:59.448Z,80.61
2018-05-16T07:42:27.807Z,80.44
2018-05-16T07:44:56.207Z,80.53
2018-05-16T07:47:24.699Z,80.52
2018-05-16T07:49:53.337Z,80.38
2018-05-16T07:52:21.783Z,80.52
2018-05-16T07:54:50.534Z,80.28
2018-05-16T07:57:19.443Z,80.29
2018-05-16T07:59:47.746Z,80.53
2018-05-16T08:02:16.299Z,80.88
2018-05-16T08:04:44.973Z,81.09
2018-05-16T08:07:13.403Z,80.73
2018-05-16T08:09:42.215Z,80.69
2018-05-16T08:12:10.769Z,81.10
2018-05-16T08:14:39.124Z,81.09
2018-05-16T08:17:07.506Z,81.14
2018-05-16T08:19:36.221Z,81.12
2018-05-16T08:22:04.563Z,81.02
2018-05-16T08:24:32.918Z,80.81
2018-05-16T08:27:01.574Z,80.22
2018-05-16T08:29:30.111Z,80.17
2018-05-16T08:31:58.778Z,79.82
2018-05-16T08:34:27.489Z,79.31
2018-05-16T08:36:56.152Z,79.52
2018-05-16T08:39:24.689Z,78.58
2018-05-16T08:41:53.074Z,78.26
2018-05-16T08:44:21.427Z,77.91
2018-05-16T08:46:50.130Z,77.03
2018-05-16T08:49:18.714Z,77.03
2018-05-16T08:51:47.054Z,76.35
2018-05-16T08:54:15.747Z,76.86
2018-05-16T08:56:44.426Z,77.24
2018-05-16T08:59:12.644Z,77.87
2018-05-16T09:01:41.144Z,77.89
2018-05-16T09:04:10.267Z,78.05
2018-05-16T09:06:39.078Z,77.89
2018-05-16T09:09:07.832Z,77.86
2018-05-16T09:11:36.544Z,78.15
2018-05-16T09:14:05.004Z,78.24
2018-05-16T09:16:33.591Z,78.71
2018-05-16T09:19:02.486Z,78.00
2018-05-16T09:21:31.190Z,77.87
2018-05-16T09:23:59.826Z,77.81
2018-05-16T09:26:28.619Z,77.40
2018-05-16T09:28:57.260Z,76.43
2018-05-16T09:31:25.907Z,77.06
2018-05-16T09:33:54.448Z,76.57
2018-05-16T09:36:22.853Z,77.14
2018-05-16T09:38:51.338Z,77.49
2018-05-16T09:41:19.763Z,76.36
2018-05-16T09:43:48.223Z,76.07
2018-05-16T09:46:16.667Z,75.39
2018-05-16T09:48:45.214Z,75.51
2018-05-16T09:51:13.936Z,74.37
2018-05-16T09:53:42.653Z,73.21
2018-05-16T09:56:11.323Z,72.74
2018-05-16T09:58:39.968Z,72.93
2018-05-16T10:01:08.287Z,72.43
2018-05-16T10:03:36.808Z,73.21
2018-05-16T10:06:05.303Z,74.83
2018-05-16T10:08:33.929Z,74.24
2018-05-16T10:11:02.413Z,73.94
2018-05-16T10:13:30.937Z,74.19
2018-05-16T10:15:59.488Z,74.05
2018-05-16T10:18:28.018Z,73.09
2018-05-16T10:20:56.487Z,72.90
2018-05-16T10:23:25.002Z,72.73
2018-05-16T10:25:53.687Z,71.91
2018-05-16T10:28:22.176Z,72.00
2018-05-16T10:30:50.615Z,73.70
2018-05-16T10:33:19.256Z,72.73
2018-05-16T10:35:47.750Z,72.44
2018-05-16T10:38:18.234Z,73.43
2018-05-16T10:40:48.719Z,72.15
2018-05-16T10:43:19.200Z,72.06
2018-05-16T10:45:47.538Z,71.98
2018-05-16T10:48:20.648Z,72.21
2018-05-16T10:50:49.007Z,72.38
2018-05-16T10:53:19.335Z,71.03
2018-05-16T10:55:47.739Z,70.10
2018-05-16T10:58:16.091Z,70.55
2018-05-16T11:00:44.461Z,71.32
2018-05-16T11:03:12.827Z,71.79
2018-05-16T11:05:43.414Z,72.08
2018-05-16T11:08:11.818Z,72.50
2018-05-16T11:10:42.415Z,72.39
2018-05-16T11:13:12.931Z,72.32
2018-05-16T11:15:43.580Z,72.40
2018-05-16T11:18:11.930Z,71.80
2018-05-16T11:20:42.558Z,74.42
2018-05-16T11:23:10.956Z,74.87
2018-05-16T11:25:41.467Z,76.92
2018-05-16T11:28:09.814Z,76.79
2018-05-16T11:30:38.292Z,75.47
2018-05-16T11:33:06.654Z,76.27
2018-05-16T11:35:35.039Z,75.97
2018-05-16T11:38:05.555Z,76.63
2018-05-16T11:40:36.187Z,76.50
2018-05-16T11:43:04.879Z,76.30
2018-05-16T11:45:33.223Z,75.62
2018-05-16T11:48:03.671Z,74.74
2018-05-16T11:50:34.196Z,75.65
2018-05-16T11:53:02.572Z,75.13
2018-05-16T11:55:30.979Z,74.24
2018-05-16T11:57:59.654Z,74.59
2018-05-16T12:00:30.309Z,74.62
2018-05-16T12:02:58.709Z,73.79
2018-05-16T12:05:27.119Z,73.91
2018-05-16T12:07:55.482Z,73.44
2018-05-16T12:10:23.856Z,73.24
2018-05-16T12:12:52.280Z,72.61
2018-05-16T12:15:20.670Z,72.72
2018-05-16T12:17:49.037Z,73.76
2018-05-16T12:20:17.394Z,74.34
2018-05-16T12:22:45.779Z,73.98
2018-05-16T12:25:14.371Z,74.03
2018-05-16T12:27:49.323Z,74.34
2018-05-16T12:30:20.143Z,74.70
2018-05-16T12:32:48.505Z,75.08
2018-05-16T12:35:16.891Z,75.01
2018-05-16T12:37:45.704Z,74.79
2018-05-16T12:40:14.071Z,74.84
2018-05-16T12:42:50.921Z,73.46
2018-05-16T12:45:23.555Z,71.97
2018-05-16T12:47:51.951Z,72.59
2018-05-16T12:50:24.476Z,73.88
2018-05-16T12:52:52.863Z,73.47
2018-05-16T12:55:23.331Z,72.48
2018-05-16T12:57:53.987Z,72.07
2018-05-16T13:00:24.339Z,72.38
2018-05-16T13:02:52.703Z,72.06
2018-05-16T13:05:21.068Z,72.44
2018-05-16T13:07:53.487Z,71.15
2018-05-16T13:10:22.114Z,70.87
2018-05-16T13:12:50.490Z,70.41
2018-05-16T13:15:21.087Z,70.38
2018-05-16T13:17:49.562Z,69.72
2018-05-16T13:20:20.060Z,69.43
2018-05-16T13:22:50.641Z,68.90
2018-05-16T13:25:23.408Z,69.41
2018-05-16T13:27:51.819Z,69.45
2018-05-16T13:30:20.228Z,69.91
2018-05-16T13:32:48.595Z,70.46
2018-05-16T13:35:19.507Z,69.77
2018-05-16T13:37:50.111Z,70.22
2018-05-16T13:40:21.075Z,70.48
2018-05-16T13:42:49.459Z,70.95
2018-05-16T13:45:22.253Z,71.60
2018-05-16T13:47:50.631Z,71.68
2018-05-16T13:50:18.991Z,71.74
2018-05-16T13:52:49.570Z,71.88
2018-05-16T13:55:18.246Z,72.56
2018-05-16T13:57:46.604Z,72.51
2018-05-16T14:00:17.018Z,72.19
2018-05-16T14:02:45.463Z,72.52
2018-05-16T14:05:13.872Z,72.19
2018-05-16T14:07:42.235Z,71.72
2018-05-16T14:10:10.627Z,72.85
2018-05-16T14:12:39.055Z,72.33
2018-05-16T14:15:09.179Z,72.12
2018-05-16T14:17:37.536Z,71.76
2018-05-16T14:20:08.149Z,71.84
2018-05-16T14:22:38.606Z,70.72
2018-05-16T14:25:07.083Z,71.44
2018-05-16T14:27:35.471Z,71.43
2018-05-16T14:30:03.899Z,72.63
2018-05-16T14:32:34.421Z,73.48
2018-05-16T14:35:02.827Z,75.90
2018-05-16T14:37:31.197Z,72.77
2018-05-16T14:39:59.603Z,71.54
2018-05-16T14:42:27.978Z,72.96
2018-05-16T14:44:56.332Z,71.92
2018-05-16T14:47:24.727Z,72.16
2018-05-16T14:49:53.095Z,71.33
2018-05-16T14:52:23.547Z,72.19
2018-05-16T14:54:52.148Z,72.66
2018-05-16T14:57:22.331Z,71.80
2018-05-16T14:59:52.762Z,72.36
2018-05-16T15:02:21.151Z,71.63
2018-05-16T15:04:49.522Z,72.38
2018-05-16T15:07:20.228Z,71.59
2018-05-16T15:09:48.623Z,70.77
2018-05-16T15:12:17.015Z,70.17
2018-05-16T15:14:45.480Z,70.96
2018-05-16T15:17:13.797Z,70.67
2018-05-16T15:19:42.466Z,69.34
2018-05-16T15:22:10.828Z,69.92
2018-05-16T15:24:39.203Z,70.08
2018-05-16T15:27:09.783Z,69.79
2018-05-16T15:29:38.187Z,70.67
2018-05-16T15:32:06.514Z,71.19
2018-05-16T15:34:37.075Z,72.27
2018-05-16T15:37:09.537Z,72.35
2018-05-16T15:39:39.941Z,71.29
2018-05-16T15:42:12.060Z,71.05
2018-05-16T15:44:42.591Z,71.52
2018-05-16T15:47:10.976Z,72.04
2018-05-16T15:49:39.327Z,72.92
2018-05-16T15:52:09.862Z,72.34
2018-05-16T15:54:38.272Z,72.06
2018-05-16T15:57:06.724Z,72.20
2018-05-16T15:59:35.173Z,72.34
2018-05-16T16:02:05.688Z,72.38
2018-05-16T16:04:34.074Z,72.22
2018-05-16T16:07:04.567Z,72.09
2018-05-16T16:09:34.814Z,71.89
2018-05-16T16:12:03.191Z,71.65
2018-05-16T16:14:31.532Z,72.09
2018-05-16T16:16:59.971Z,72.28
2018-05-16T16:19:28.331Z,71.81
2018-05-16T16:21:56.709Z,72.25
2018-05-16T16:24:25.143Z,72.05
2018-05-16T16:26:53.765Z,72.02
2018-05-16T16:29:22.180Z,71.98
2018-05-16T16:31:50.575Z,71.07
2018-05-16T16:34:19.061Z,70.79
2018-05-16T16:36:47.368Z,70.33
2018-05-16T16:39:20.051Z,70.15
2018-05-16T16:41:48.420Z,69.49
2018-05-16T16:44:17.021Z,69.82
2018-05-16T16:46:47.549Z,69.64
2018-05-16T16:49:16.075Z,70.37
2018-05-16T16:51:44.463Z,70.17
2018-05-16T16:54:16.538Z,69.93
2018-05-16T16:56:45.042Z,69.95
2018-05-16T16:59:17.846Z,70.77
2018-05-16T17:01:46.557Z,70.74
2018-05-16T17:04:17.083Z,71.45
2018-05-16T17:06:45.514Z,72.16
2018-05-16T17:09:14.316Z,72.97
2018-05-16T17:11:44.786Z,73.65
2018-05-16T17:14:15.270Z,73.06
2018-05-16T17:16:43.663Z,73.37
2018-05-16T17:19:14.172Z,74.28
2018-05-16T17:21:42.601Z,74.71
2018-05-16T17:24:11.101Z,75.05
2018-05-16T17:26:39.423Z,75.86
2018-05-16T17:29:09.799Z,75.85
2018-05-16T17:31:38.216Z,74.85
2018-05-16T17:34:08.714Z,74.81
2018-05-16T17:36:41.616Z,73.93
2018-05-16T17:39:10.038Z,74.48
2018-05-16T17:41:38.473Z,74.96
2018-05-16T17:44:06.849Z,74.46
2018-05-16T17:46:35.239Z,72.62
2018-05-16T17:49:03.632Z,73.01
2018-05-16T17:51:36.230Z,72.71
2018-05-16T17:54:08.584Z,74.02
2018-05-16T17:56:39.210Z,75.00
2018-05-16T17:59:07.593Z,72.31
2018-05-16T18:01:36.019Z,73.06
2018-05-16T18:04:04.439Z,73.84
2018-05-16T18:06:32.886Z,73.24
2018-05-16T18:09:01.253Z,74.01
2018-05-16T18:11:29.672Z,74.79
2018-05-16T18:14:06.368Z,75.46
2018-05-16T18:16:41.083Z,75.41
2018-05-16T18:19:09.970Z,75.66
2018-05-16T18:21:38.489Z,75.50
2018-05-16T18:24:09.219Z,75.99
2018-05-16T18:26:42.133Z,75.98
2018-05-16T18:29:10.649Z,76.65
2018-05-16T18:31:41.369Z,76.62
2018-05-16T18:34:14.293Z,77.31
2018-05-16T18:36:42.748Z,77.87
2018-05-16T18:39:11.135Z,78.29
2018-05-16T18:41:39.964Z,78.70
2018-05-16T18:44:12.865Z,79.05
2018-05-16T18:46:41.289Z,78.67
2018-05-16T18:49:09.836Z,78.59
2018-05-16T18:51:38.133Z,78.45
2018-05-16T18:54:06.519Z,78.48
2018-05-16T18:56:34.931Z,78.59
2018-05-16T18:59:03.316Z,78.94
2018-05-16T19:01:35.791Z,79.39
2018-05-16T19:04:04.202Z,79.62
2018-05-16T19:06:35.279Z,79.52
2018-05-16T19:09:05.664Z,79.83
2018-05-16T19:11:34.092Z,80.15
2018-05-16T19:14:04.647Z,79.55
2018-05-16T19:16:35.244Z,80.14
2018-05-16T19:19:03.639Z,79.24
2018-05-16T19:21:32.044Z,79.93
2018-05-16T19:24:02.765Z,79.98
2018-05-16T19:26:31.177Z,80.44
2018-05-16T19:28:59.542Z,80.53
2018-05-16T19:31:30.204Z,80.88
2018-05-16T19:33:58.656Z,80.55
2018-05-16T19:36:27.111Z,80.36
2018-05-16T19:38:55.617Z,80.73
2018-05-16T19:41:24.007Z,80.64
2018-05-16T19:43:52.435Z,80.58
2018-05-16T19:46:20.854Z,80.83
2018-05-16T19:48:51.511Z,80.54
2018-05-16T19:51:20.084Z,80.49
2018-05-16T19:53:50.440Z,80.74
2018-05-16T19:56:18.824Z,80.25
2018-05-16T19:58:49.628Z,80.14
2018-05-16T20:01:18.120Z,80.33
2018-05-16T20:03:48.719Z,80.39
2018-05-16T20:06:17.107Z,80.64
2018-05-16T20:08:45.500Z,80.82
2018-05-16T20:11:13.925Z,80.68
2018-05-16T20:13:42.266Z,81.00
2018-05-16T20:16:10.668Z,81.01
2018-05-16T20:18:39.056Z,80.39
2018-05-16T20:21:07.452Z,79.59
2018-05-16T20:23:36.171Z,79.73
2018-05-16T20:26:06.799Z,79.49
2018-05-16T20:28:37.646Z,78.55
2018-05-16T20:31:06.135Z,79.40
2018-05-16T20:33:36.786Z,79.46
2018-05-16T20:36:05.222Z,79.01
2018-05-16T20:38:33.661Z,80.65
2018-05-16T20:41:02.014Z,80.90
2018-05-16T20:43:30.416Z,80.15
2018-05-16T20:45:58.844Z,81.07
2018-05-16T20:48:27.671Z,80.57
2018-05-16T20:50:56.067Z,82.14
2018-05-16T20:53:24.434Z,81.72
2018-05-16T20:55:52.907Z,80.91
2018-05-16T20:58:25.713Z,81.41
2018-05-16T21:00:56.377Z,82.01
2018-05-16T21:03:24.767Z,81.99
2018-05-16T21:05:55.426Z,81.99
2018-05-16T21:08:23.869Z,80.95
2018-05-16T21:10:54.483Z,81.52
2018-05-16T21:13:22.934Z,81.44
2018-05-16T21:15:51.344Z,81.25
2018-05-16T21:18:19.735Z,81.40
2018-05-16T21:20:50.499Z,81.60
2018-05-16T21:23:18.900Z,81.77
2018-05-16T21:25:47.259Z,81.64
2018-05-16T21:28:15.707Z,81.42
2018-05-16T21:30:44.062Z,81.71
2018-05-16T21:33:12.480Z,81.78
2018-05-16T21:35:40.891Z,81.83
2018-05-16T21:38:09.323Z,81.92
2018-05-16T21:40:37.696Z,81.74
2018-05-16T21:43:06.476Z,81.52
2018-05-16T21:45:34.838Z,81.61
2018-05-16T21:48:03.219Z,81.75
2018-05-16T21:50:33.947Z,81.80
2018-05-16T21:53:04.599Z,82.05
2018-05-16T21:55:32.984Z,82.24
2018-05-16T21:58:01.344Z,82.50
2018-05-16T22:00:32.023Z,82.57
2018-05-16T22:03:00.439Z,82.64
2018-05-16T22:05:31.147Z,82.56
2018-05-16T22:07:59.543Z,83.04
2018-05-16T22:10:27.893Z,82.28
2018-05-16T22:12:56.279Z,81.91
2018-05-16T22:15:24.660Z,81.99
2018-05-16T22:17:53.024Z,82.53
2018-05-16T22:20:23.690Z,82.84
2018-05-16T22:22:52.090Z,82.01
2018-05-16T22:25:20.419Z,82.09
2018-05-16T22:27:48.810Z,81.54
2018-05-16T22:30:17.076Z,81.39
2018-05-16T22:32:51.771Z,82.17
2018-05-16T22:35:26.194Z,82.54
2018-05-16T22:38:00.824Z,82.35
2018-05-16T22:40:35.531Z,82.06
2018-05-16T22:43:06.078Z,82.19
2018-05-16T22:45:37.735Z,81.46
2018-05-16T22:48:06.202Z,81.38
2018-05-16T22:50:34.579Z,81.72
2018-05-16T22:53:02.955Z,81.45
2018-05-16T22:55:33.792Z,80.59
2018-05-16T22:58:02.167Z,79.91
2018-05-16T23:00:30.549Z,80.27
2018-05-16T23:02:58.829Z,80.70
2018-05-16T23:05:27.187Z,80.40
2018-05-16T23:07:55.508Z,80.55
2018-05-16T23:10:25.984Z,80.29
2018-05-16T23:12:56.624Z,80.60
2018-05-16T23:15:24.988Z,80.60
2018-05-16T23:17:55.596Z,80.79
2018-05-16T23:20:23.986Z,81.72
2018-05-16T23:22:54.637Z,82.49
2018-05-16T23:25:22.984Z,82.56
2018-05-16T23:27:51.359Z,82.46
2018-05-16T23:30:22.875Z,82.37
2018-05-16T23:32:51.300Z,81.41
2018-05-16T23:35:19.667Z,81.31
2018-05-16T23:37:48.076Z,81.29
2018-05-16T23:40:20.515Z,82.06
2018-05-16T23:42:48.928Z,80.92
2018-05-16T23:45:17.636Z,81.28
2018-05-16T23:47:48.311Z,81.61
2018-05-16T23:50:16.687Z,81.44
2018-05-16T23:52:45.459Z,80.68
2018-05-16T23:55:13.826Z,81.47
2018-05-16T23:57:42.178Z,81.80
